createdAt,value
2023-05-14T19:59:31.538Z,12.79
2023-05-14T20:02:01.632Z,12.84
2023-05-14T20:04:30.127Z,12.92
2023-05-14T20:06:59.224Z,13.00
2023-05-14T20:09:27.728Z,13.08
2023-05-14T20:11:56.287Z,13.16
2023-05-14T20:14:24.642Z,13.21
2023-05-14T20:16:53.502Z,13.24
2023-05-14T20:19:22.664Z,13.31
2023-05-14T20:21:51.402Z,13.33
2023-05-14T20:24:20.049Z,13.37
2023-05-14T20:26:48.759Z,13.40
2023-05-14T20:29:17.562Z,13.43
2023-05-14T20:31:46.597Z,13.46
2023-05-14T20:34:14.962Z,13.46
2023-05-14T20:36:46.448Z,13.46
2023-05-14T20:39:15.120Z,13.47
2023-05-14T20:41:46.185Z,13.49
2023-05-14T20:44:14.483Z,13.50
2023-05-14T20:46:43.133Z,13.53
2023-05-14T20:49:12.280Z,13.51
2023-05-14T20:51:43.385Z,13.47
2023-05-14T20:54:12.174Z,13.39
2023-05-14T20:56:40.426Z,13.33
2023-05-14T20:59:09.368Z,13.30
2023-05-14T21:01:38.271Z,13.28
2023-05-14T21:04:08.172Z,13.30
2023-05-14T21:06:36.944Z,13.33
2023-05-14T21:09:06.230Z,13.35
2023-05-14T21:11:35.121Z,13.37
2023-05-14T21:14:05.802Z,13.39
2023-05-14T21:16:39.115Z,13.39
2023-05-14T21:19:08.274Z,13.38
2023-05-14T21:21:36.961Z,13.42
2023-05-14T21:24:05.570Z,13.42
2023-05-14T21:26:34.001Z,13.44
2023-05-14T21:29:03.962Z,13.44
2023-05-14T21:31:32.356Z,13.46
2023-05-14T21:34:00.785Z,13.44
2023-05-14T21:36:29.398Z,13.43
2023-05-14T21:38:58.146Z,13.41
2023-05-14T21:41:26.418Z,13.40
2023-05-14T21:43:54.957Z,13.36
2023-05-14T21:46:28.140Z,13.35
2023-05-14T21:48:57.585Z,13.33
2023-05-14T21:51:25.832Z,13.33
2023-05-14T21:53:54.465Z,13.33
2023-05-14T21:56:22.951Z,13.31
2023-05-14T21:58:51.587Z,13.33
2023-05-14T22:01:20.885Z,13.37
2023-05-14T22:03:49.497Z,13.38
2023-05-14T22:06:18.544Z,13.41
2023-05-14T22:08:47.030Z,13.42
2023-05-14T22:11:15.876Z,13.43
2023-05-14T22:13:44.189Z,13.40
2023-05-14T22:16:13.989Z,13.39
2023-05-14T22:18:43.358Z,13.37
2023-05-14T22:21:11.716Z,13.33
2023-05-14T22:23:40.153Z,13.34
2023-05-14T22:26:08.434Z,13.33
2023-05-14T22:28:40.195Z,13.33
2023-05-14T22:31:08.598Z,13.32
2023-05-14T22:33:37.632Z,13.31
2023-05-14T22:36:08.001Z,13.26
2023-05-14T22:38:36.573Z,13.25
2023-05-14T22:41:05.302Z,13.24
2023-05-14T22:43:33.634Z,13.20
2023-05-14T22:46:01.831Z,13.15
2023-05-14T22:48:30.094Z,13.13
2023-05-14T22:50:58.718Z,13.11
2023-05-14T22:53:27.448Z,13.10
2023-05-14T22:55:55.742Z,13.08
2023-05-14T22:58:24.099Z,13.10
2023-05-14T23:00:53.121Z,13.12
2023-05-14T23:03:21.801Z,13.11
2023-05-14T23:05:50.176Z,13.12
2023-05-14T23:08:18.400Z,13.13
2023-05-14T23:10:46.759Z,13.15
2023-05-14T23:13:15.280Z,13.16
2023-05-14T23:15:44.807Z,13.19
2023-05-14T23:18:13.216Z,13.21
2023-05-14T23:20:41.584Z,13.22
2023-05-14T23:23:09.774Z,13.22
2023-05-14T23:25:38.377Z,13.24
2023-05-14T23:28:06.936Z,13.24
2023-05-14T23:30:35.327Z,13.23
2023-05-14T23:33:03.996Z,13.22
2023-05-14T23:35:32.370Z,13.21
2023-05-14T23:38:01.127Z,13.20
2023-05-14T23:40:29.475Z,13.18
2023-05-14T23:43:00.346Z,13.17
2023-05-14T23:45:28.974Z,13.17
2023-05-14T23:48:01.370Z,13.16
2023-05-14T23:50:29.749Z,13.14
2023-05-14T23:52:57.935Z,13.12
2023-05-14T23:55:26.558Z,13.09
2023-05-14T23:57:54.667Z,13.07
